Time;durP1;ratioP1;P1;durP2;ratioP2;P2;SDS_P1;SDS_P2;PMS_P1;PMS_P2;Temp;Humidity;BMP_temperature;BMP_pressure;BME280_temperature;BME280_humidity;BME280_pressure;Samples;Min_cycle;Max_cycle;Signal;HPM_P1;HPM_P2
2022/11/17 00:01:52;;;;;;;0.17;0.08;;;;;;;3.77;64.73;102032.25;5034982;28;20042;-74
2022/11/17 00:04:19;;;;;;;0.08;0.00;;;;;;;3.77;65.51;102033.13;5030381;28;20045;-73
2022/11/17 00:06:45;;;;;;;0.65;0.05;;;;;;;3.78;64.62;102029.69;5031392;28;20049;-74
2022/11/17 00:09:16;;;;;;;0.00;0.00;;;;;;;3.77;65.45;102027.94;5033650;28;20052;-74
2022/11/17 00:14:36;;;;;;;0.20;0.03;;;;;;;3.77;65.43;102017.63;5030632;28;20170;-74
2022/11/17 00:17:05;;;;;;;0.00;0.00;;;;;;;3.76;65.01;102013.28;5033240;28;20079;-74
2022/11/17 00:22:16;;;;;;;0.00;0.00;;;;;;;3.75;65.45;102019.25;5030486;28;20715;-74
2022/11/17 00:24:43;;;;;;;4.60;0.10;;;;;;;3.76;65.07;102020.16;5031110;28;20045;-75
2022/11/17 00:27:11;;;;;;;0.15;0.10;;;;;;;3.74;65.49;102022.69;5032656;28;20052;-74
2022/11/17 00:29:38;;;;;;;0.10;0.00;;;;;;;3.73;65.33;102015.78;5027789;28;20041;-73
2022/11/17 00:34:50;;;;;;;0.35;0.00;;;;;;;3.74;64.89;102012.34;5033381;28;20727;-74
2022/11/17 00:37:17;;;;;;;0.10;0.00;;;;;;;3.74;65.50;102007.19;5032755;28;20068;-74
2022/11/17 00:39:44;;;;;;;0.00;0.00;;;;;;;3.74;64.85;102011.50;5034057;28;20060;-74
2022/11/17 00:42:12;;;;;;;0.10;0.05;;;;;;;3.72;65.78;102016.59;5031564;28;20041;-74
2022/11/17 00:44:39;;;;;;;0.13;0.00;;;;;;;3.69;65.87;102008.75;5035769;28;20564;-74
2022/11/17 00:47:06;;;;;;;0.00;0.00;;;;;;;3.69;65.37;102003.59;5035914;28;20053;-74
2022/11/17 00:49:33;;;;;;;0.00;0.00;;;;;;;3.60;65.03;101988.69;5035495;28;20657;-74
2022/11/17 00:52:00;;;;;;;0.00;0.00;;;;;;;3.60;65.82;101986.09;5041396;28;20041;-73
2022/11/17 00:54:27;;;;;;;1.48;0.00;;;;;;;3.68;65.12;102006.16;5041717;28;20052;-74
2022/11/17 00:56:54;;;;;;;0.85;0.10;;;;;;;3.66;65.49;101998.34;5041926;28;20091;-76
2022/11/17 00:59:23;;;;;;;0.30;0.00;;;;;;;3.69;65.16;102005.31;5041503;28;20056;-74
2022/11/17 01:01:50;;;;;;;0.98;0.10;;;;;;;3.68;65.68;102011.31;5036872;28;20049;-75
2022/11/17 01:04:17;;;;;;;0.00;0.00;;;;;;;3.68;65.35;102007.00;5033800;28;20417;-73
2022/11/17 01:06:46;;;;;;;0.95;0.00;;;;;;;3.65;65.40;101999.19;5034500;28;20041;-73
2022/11/17 01:09:15;;;;;;;0.00;0.00;;;;;;;3.67;66.02;102005.28;5035714;28;20056;-73
2022/11/17 01:11:43;;;;;;;0.55;0.00;;;;;;;3.57;66.14;101983.44;5033737;28;20060;-74
2022/11/17 01:14:13;;;;;;;0.05;0.05;;;;;;;3.64;65.88;101994.81;5035673;28;20083;-74
2022/11/17 01:16:42;;;;;;;0.10;0.10;;;;;;;3.63;65.83;101993.06;5033946;28;20129;-74
2022/11/17 01:19:11;;;;;;;0.00;0.00;;;;;;;3.61;65.41;101989.56;5035677;28;20051;-73
2022/11/17 01:21:39;;;;;;;0.10;0.10;;;;;;;3.62;65.97;101987.88;5034631;28;20052;-73
2022/11/17 01:24:06;;;;;;;0.00;0.00;;;;;;;3.60;66.20;101993.84;5035507;28;20042;-74
2022/11/17 01:26:35;;;;;;;0.10;0.10;;;;;;;3.61;65.88;101984.41;5035823;28;20045;-74
2022/11/17 01:29:04;;;;;;;0.40;0.10;;;;;;;3.61;65.66;101994.72;5033830;28;20041;-74
2022/11/17 01:31:32;;;;;;;0.08;0.08;;;;;;;3.61;66.04;101994.72;5034986;28;20045;-74
2022/11/17 01:34:01;;;;;;;0.10;0.10;;;;;;;3.61;65.96;101986.97;5035086;28;20049;-74
2022/11/17 01:37:17;;;;;;;0.10;0.10;;;;;;;3.59;66.04;101986.94;5034585;28;20051;-74
2022/11/17 01:39:17;;;;;;;0.20;0.00;;;;;;;3.61;65.56;101994.72;5034431;28;20117;-74
2022/11/17 01:41:44;;;;;;;0.00;0.00;;;;;;;3.61;66.14;101992.16;5033527;28;20051;-75
2022/11/17 01:44:48;;;;;;;0.10;0.08;;;;;;;3.60;65.81;101987.81;5033997;28;20037;-75
2022/11/17 01:47:20;;;;;;;0.05;0.05;;;;;;;3.58;65.63;101980.00;5032651;28;20600;-74
2022/11/17 01:49:50;;;;;;;1.75;0.00;;;;;;;3.58;65.96;101981.72;5034225;28;20049;-75
2022/11/17 01:52:17;;;;;;;0.10;0.10;;;;;;;3.58;65.67;101979.13;5033421;28;20047;-74
2022/11/17 01:54:47;;;;;;;0.32;0.10;;;;;;;3.59;66.04;101971.44;5035978;28;20044;-75
2022/11/17 01:57:19;;;;;;;0.00;0.00;;;;;;;3.60;66.19;101977.47;5029730;28;20049;-74
2022/11/17 01:59:49;;;;;;;0.00;0.00;;;;;;;3.60;66.43;101974.91;5035233;28;20466;-74
2022/11/17 02:02:16;;;;;;;0.10;0.10;;;;;;;3.60;66.61;101972.31;5036610;28;20037;-74
2022/11/17 02:04:46;;;;;;;0.10;0.10;;;;;;;3.59;66.51;101955.94;5038997;28;20053;-73
2022/11/17 02:07:19;;;;;;;0.03;0.00;;;;;;;3.60;66.77;101959.41;5038517;28;20161;-74
2022/11/17 02:09:47;;;;;;;0.10;0.10;;;;;;;3.59;65.95;101958.53;5029852;28;20045;-75
2022/11/17 02:12:16;;;;;;;0.13;0.10;;;;;;;3.53;66.47;101941.94;5032332;28;20047;-75
2022/11/17 02:14:43;;;;;;;0.10;0.10;;;;;;;3.58;66.45;101955.88;5032148;28;20425;-74
2022/11/17 02:17:11;;;;;;;0.10;0.10;;;;;;;3.57;66.46;101961.91;5034476;28;20075;-77
2022/11/17 02:19:40;;;;;;;0.10;0.10;;;;;;;3.56;66.74;101955.84;5036745;28;20049;-74
2022/11/17 02:22:31;;;;;;;0.00;0.00;;;;;;;3.56;65.89;101955.84;5032675;28;20047;-76
2022/11/17 02:25:31;;;;;;;1.55;0.03;;;;;;;3.56;65.96;101961.03;5023719;28;20613;-75
2022/11/17 02:28:15;;;;;;;0.10;0.10;;;;;;;3.56;66.95;101957.56;5030046;28;20045;-75
2022/11/17 02:30:52;;;;;;;0.63;0.10;;;;;;;3.56;66.12;101949.81;5034913;28;20060;-74
2022/11/17 02:33:29;;;;;;;0.98;0.08;;;;;;;3.48;66.92;101938.38;5037240;28;20548;-74
2022/11/17 02:36:02;;;;;;;0.10;0.03;;;;;;;3.54;66.79;101947.19;5029952;28;20052;-74
2022/11/17 02:38:36;;;;;;;0.00;0.00;;;;;;;3.53;66.42;101944.53;5038178;28;20519;-74
2022/11/17 02:41:11;;;;;;;0.00;0.00;;;;;;;3.53;66.72;101949.69;5032296;28;20057;-74
2022/11/17 02:44:05;;;;;;;0.10;0.10;;;;;;;3.52;66.77;101942.78;5035930;28;20075;-74
2022/11/17 02:46:40;;;;;;;0.10;0.00;;;;;;;3.49;66.28;101937.53;5036448;28;20040;-74
2022/11/17 02:49:15;;;;;;;0.10;0.10;;;;;;;3.51;66.61;101943.63;5040117;28;20045;-74
2022/11/17 02:51:43;;;;;;;0.10;0.05;;;;;;;3.48;66.40;101940.97;5032696;28;20496;-74
2022/11/17 02:54:12;;;;;;;0.75;0.00;;;;;;;3.47;65.98;101944.38;5036241;28;20517;-75
2022/11/17 02:56:42;;;;;;;0.10;0.10;;;;;;;3.46;66.60;101948.66;5035378;28;20057;-74
2022/11/17 02:59:13;;;;;;;0.10;0.10;;;;;;;3.44;66.95;101946.84;5033324;28;20046;-74
2022/11/17 03:02:08;;;;;;;0.10;0.10;;;;;;;3.44;66.62;101952.03;5037007;28;20056;-74
2022/11/17 03:04:45;;;;;;;0.10;0.00;;;;;;;3.28;66.53;101923.16;5036035;28;20049;-76
2022/11/17 03:07:28;;;;;;;0.20;0.10;;;;;;;3.40;67.14;101940.72;5036788;28;20049;-74
2022/11/17 03:10:04;;;;;;;0.47;0.10;;;;;;;3.34;67.07;101935.38;5033527;28;20067;-76
2022/11/17 03:12:39;;;;;;;0.85;0.08;;;;;;;3.38;66.96;101927.75;5032272;28;20044;-74
2022/11/17 03:15:17;;;;;;;0.00;0.00;;;;;;;3.37;66.96;101928.59;5035471;28;20045;-74
2022/11/17 03:17:52;;;;;;;0.10;0.10;;;;;;;3.38;66.68;101919.13;5029644;28;20501;-74
2022/11/17 03:20:22;;;;;;;0.15;0.05;;;;;;;3.38;66.86;101930.34;5032333;28;20042;-74
2022/11/17 03:22:55;;;;;;;0.10;0.10;;;;;;;3.38;67.34;101930.34;5038563;28;20061;-73
2022/11/17 03:25:25;;;;;;;0.13;0.10;;;;;;;3.38;66.34;101929.47;5037510;28;20545;-74
2022/11/17 03:27:57;;;;;;;0.20;0.10;;;;;;;3.37;66.83;101932.91;5033930;28;20087;-74
2022/11/17 03:30:27;;;;;;;0.32;0.00;;;;;;;3.37;66.92;101933.75;5038024;28;20638;-74
2022/11/17 03:33:01;;;;;;;0.10;0.10;;;;;;;3.38;67.27;101938.09;5040620;28;20041;-73
2022/11/17 03:35:32;;;;;;;0.10;0.10;;;;;;;3.37;66.70;101928.59;5034311;28;20061;-72
2022/11/17 03:38:05;;;;;;;1.23;0.10;;;;;;;3.38;67.11;101930.34;5034596;28;20500;-73
2022/11/17 03:40:35;;;;;;;0.08;0.08;;;;;;;3.37;66.62;101933.75;5037639;28;20050;-72
2022/11/17 03:43:06;;;;;;;3.40;0.10;;;;;;;3.35;66.99;101927.66;5040724;28;20053;-72
2022/11/17 03:45:36;;;;;;;1.55;0.10;;;;;;;3.36;66.70;101926.88;5038226;28;20042;-72
2022/11/17 03:48:07;;;;;;;0.25;0.10;;;;;;;3.36;67.29;101924.28;5039048;28;20477;-72
2022/11/17 03:50:39;;;;;;;0.15;0.10;;;;;;;3.36;67.17;101916.53;5036123;28;20060;-73
2022/11/17 03:53:06;;;;;;;0.10;0.10;;;;;;;3.30;66.85;101911.19;5038206;28;20048;-72
2022/11/17 03:55:41;;;;;;;0.10;0.10;;;;;;;3.33;67.70;101908.69;5037768;28;20467;-72
2022/11/17 03:58:15;;;;;;;0.20;0.10;;;;;;;3.34;67.27;101922.47;5039375;28;20465;-72
2022/11/17 04:00:44;;;;;;;0.10;0.10;;;;;;;3.32;67.29;101918.97;5032522;28;20044;-72
2022/11/17 04:03:11;;;;;;;1.55;0.10;;;;;;;3.32;66.99;101919.84;5039966;28;20140;-72
2022/11/17 04:05:38;;;;;;;0.20;0.10;;;;;;;3.30;67.65;101925.78;5034012;28;20053;-72
2022/11/17 04:08:05;;;;;;;0.10;0.10;;;;;;;3.30;67.34;101918.94;5035594;28;20058;-71
2022/11/17 04:15:54;;;;;;;0.10;0.10;;;;;;;3.31;67.35;101919.81;5037545;28;20505;-72
2022/11/17 04:16:05;;;;;;;0.65;0.10;;;;;;;3.31;67.71;101917.22;5038185;28;20060;-71
2022/11/17 04:18:32;;;;;;;1.95;0.10;;;;;;;3.30;67.97;101908.59;5034998;28;20049;-72
2022/11/17 04:20:59;;;;;;;0.10;0.10;;;;;;;3.30;67.95;101906.03;5037536;28;20041;-72
2022/11/17 04:23:27;;;;;;;1.75;0.10;;;;;;;3.30;68.13;101895.69;5037893;28;20130;-72
2022/11/17 04:28:41;;;;;;;0.10;0.10;;;;;;;3.30;67.80;101890.53;5035540;28;20576;-72
2022/11/17 04:31:13;;;;;;;0.00;0.00;;;;;;;3.30;67.44;101884.47;5038869;28;20063;-72
2022/11/17 04:33:41;;;;;;;0.10;0.10;;;;;;;3.31;67.64;101889.69;5039683;28;20568;-72
2022/11/17 04:36:09;;;;;;;0.10;0.10;;;;;;;3.32;67.74;101888.84;5043724;28;20160;-72
2022/11/17 04:38:36;;;;;;;0.20;0.10;;;;;;;3.33;67.75;101890.63;5038233;28;20835;-72
2022/11/17 04:43:50;;;;;;;2.20;0.10;;;;;;;3.32;67.54;101887.97;5035835;28;20052;-72
2022/11/17 04:46:20;;;;;;;1.63;0.10;;;;;;;3.33;68.11;101890.63;5034620;28;20041;-72
2022/11/17 04:48:47;;;;;;;0.10;0.10;;;;;;;3.33;68.35;101881.97;5041981;28;20053;-72
2022/11/17 04:51:15;;;;;;;1.40;0.17;;;;;;;3.32;68.49;101881.09;5037453;28;20045;-72
2022/11/17 04:53:43;;;;;;;0.17;0.10;;;;;;;3.31;68.44;101881.94;5037912;28;20037;-72
2022/11/17 04:56:10;;;;;;;0.10;0.00;;;;;;;3.31;67.60;101884.53;5034889;28;20037;-72
2022/11/17 04:58:37;;;;;;;0.10;0.10;;;;;;;3.23;68.18;101865.34;5037607;28;20520;-72
2022/11/17 05:01:13;;;;;;;1.05;0.10;;;;;;;3.28;68.14;101876.69;5039446;28;20409;-72
2022/11/17 05:03:44;;;;;;;2.30;0.10;;;;;;;3.28;68.08;101868.94;5037791;28;20049;-72
2022/11/17 05:06:13;;;;;;;0.10;0.10;;;;;;;3.28;67.65;101871.53;5036005;28;20515;-72
2022/11/17 05:08:41;;;;;;;0.10;0.10;;;;;;;3.28;68.00;101880.97;5036458;28;20041;-72
2022/11/17 05:13:53;;;;;;;0.10;0.10;;;;;;;3.25;68.32;101875.72;5037511;28;20056;-72
2022/11/17 05:19:09;;;;;;;0.55;0.25;;;;;;;3.22;67.90;101879.09;5035922;28;20370;-71
2022/11/17 05:21:36;;;;;;;0.17;0.10;;;;;;;3.14;67.90;101867.66;5038591;28;20041;-72
2022/11/17 05:24:01;;;;;;;0.03;0.00;;;;;;;3.20;68.07;101877.28;5035053;28;20042;-72
2022/11/17 05:26:31;;;;;;;0.50;0.10;;;;;;;3.16;68.58;101871.19;5040506;28;20052;-72
2022/11/17 05:29:00;;;;;;;0.08;0.08;;;;;;;3.16;68.33;101871.19;5036790;28;20046;-72
2022/11/17 05:31:28;;;;;;;1.75;0.10;;;;;;;3.18;68.14;101868.63;5039109;28;20057;-72
2022/11/17 05:33:55;;;;;;;0.70;0.10;;;;;;;3.16;68.84;101873.75;5039522;28;20077;-72
2022/11/17 05:36:25;;;;;;;1.52;0.10;;;;;;;3.13;68.10;101871.06;5040708;28;20449;-72
2022/11/17 05:38:52;;;;;;;0.70;0.10;;;;;;;3.11;68.40;101876.19;5035665;28;20037;-72
2022/11/17 05:41:21;;;;;;;0.00;0.00;;;;;;;3.10;67.79;101865.81;5038718;28;20080;-72
2022/11/17 05:43:49;;;;;;;0.70;0.00;;;;;;;3.08;68.04;101867.50;5038330;28;20052;-72
2022/11/17 05:46:16;;;;;;;0.20;0.10;;;;;;;3.08;68.50;101867.50;5037854;28;20658;-72
2022/11/17 05:48:43;;;;;;;0.10;0.00;;;;;;;3.08;68.18;101872.66;5039424;28;20079;-71
2022/11/17 05:51:11;;;;;;;0.10;0.00;;;;;;;3.04;68.24;101865.63;5035621;28;20056;-71
2022/11/17 05:53:39;;;;;;;0.15;0.00;;;;;;;3.06;68.47;101869.13;5040347;28;20136;-71
2022/11/17 05:56:14;;;;;;;0.17;0.00;;;;;;;3.04;67.98;101866.50;5040332;28;20414;-72
2022/11/17 05:58:44;;;;;;;0.00;0.00;;;;;;;3.04;68.54;101866.50;5041157;28;20406;-72
2022/11/17 06:01:13;;;;;;;0.25;0.00;;;;;;;3.04;68.43;101870.78;5038254;28;20046;-72
2022/11/17 06:03:50;;;;;;;0.05;0.00;;;;;;;3.04;68.02;101874.25;5037282;28;20049;-71
2022/11/17 06:06:17;;;;;;;0.05;0.00;;;;;;;3.03;67.81;101869.06;4991896;28;20057;-71
2022/11/17 06:08:46;;;;;;;1.08;0.00;;;;;;;3.05;68.33;101878.59;5020098;28;20503;-71
2022/11/17 06:11:14;;;;;;;0.32;0.00;;;;;;;3.05;68.34;101869.97;5017563;28;20065;-72
2022/11/17 06:13:41;;;;;;;0.00;0.00;;;;;;;2.96;68.44;101856.78;5016324;28;20049;-71
2022/11/17 06:16:12;;;;;;;2.65;0.00;;;;;;;3.04;68.07;101870.78;5015711;28;20045;-72
2022/11/17 06:18:43;;;;;;;0.10;0.00;;;;;;;3.04;68.76;101863.91;4996659;28;20049;-71
2022/11/17 06:21:11;;;;;;;0.00;0.00;;;;;;;3.04;68.76;101873.38;5018689;28;20069;-72
2022/11/17 06:23:38;;;;;;;0.00;0.00;;;;;;;3.01;68.14;101865.53;5019862;28;20061;-71
2022/11/17 06:26:09;;;;;;;0.15;0.00;;;;;;;3.02;68.97;101872.47;5013836;28;20052;-71
2022/11/17 06:28:39;;;;;;;0.80;0.00;;;;;;;3.00;68.67;101871.53;5018327;28;20042;-71
2022/11/17 06:31:07;;;;;;;0.10;0.00;;;;;;;3.02;69.34;101877.63;5014375;28;20054;-71
2022/11/17 06:33:35;;;;;;;2.58;0.00;;;;;;;2.98;68.62;101871.47;5017331;28;20049;-71
2022/11/17 06:36:05;;;;;;;0.05;0.05;;;;;;;3.01;69.31;101875.88;5016620;28;22292;-71
2022/11/17 06:38:34;;;;;;;0.00;0.00;;;;;;;3.01;68.70;101875.88;5016213;28;20491;-71
2022/11/17 06:41:01;;;;;;;3.75;0.00;;;;;;;3.00;69.29;101876.72;5019177;28;20038;-72
2022/11/17 06:43:30;;;;;;;0.00;0.00;;;;;;;3.01;69.25;101881.03;5016074;28;20047;-73
2022/11/17 06:45:57;;;;;;;0.55;0.00;;;;;;;3.00;69.41;101875.00;5018409;28;20550;-71
2022/11/17 06:48:25;;;;;;;0.32;0.00;;;;;;;3.01;69.50;101886.19;5020637;28;20053;-72
2022/11/17 06:50:53;;;;;;;1.52;0.10;;;;;;;3.00;69.74;101874.13;5016742;28;20085;-72
2022/11/17 06:53:21;;;;;;;0.05;0.00;;;;;;;3.00;69.37;101884.44;5019636;28;20049;-71
2022/11/17 06:55:50;;;;;;;0.73;0.00;;;;;;;3.00;69.80;101881.88;5020090;28;20471;-72
2022/11/17 06:58:17;;;;;;;0.45;0.10;;;;;;;3.02;69.59;101878.50;5015113;28;20049;-72
2022/11/17 07:00:45;;;;;;;0.08;0.00;;;;;;;3.04;69.35;101881.13;5021331;28;20045;-72
2022/11/17 07:03:12;;;;;;;0.00;0.00;;;;;;;3.04;69.95;101875.94;5015368;28;20052;-72
2022/11/17 07:05:39;;;;;;;0.82;0.10;;;;;;;3.05;69.83;101877.72;5019633;28;20045;-72
2022/11/17 07:08:08;;;;;;;0.90;0.00;;;;;;;3.05;70.18;101873.44;5013453;28;20057;-72
2022/11/17 07:10:35;;;;;;;0.63;0.00;;;;;;;3.04;69.71;101869.06;5017993;28;20061;-72
2022/11/17 07:13:03;;;;;;;0.63;0.10;;;;;;;3.04;69.46;101873.38;5018377;28;20049;-72
2022/11/17 07:15:30;;;;;;;0.10;0.00;;;;;;;3.07;69.83;101871.75;5015173;28;20045;-72
2022/11/17 07:17:59;;;;;;;1.77;0.10;;;;;;;3.10;69.47;101873.56;5019572;28;20506;-72
2022/11/17 07:20:25;;;;;;;0.90;0.03;;;;;;;3.10;69.83;101873.56;5017216;28;20061;-72
2022/11/17 07:22:58;;;;;;;0.77;0.03;;;;;;;3.14;69.57;101865.09;5022571;28;20041;-72
2022/11/17 07:25:25;;;;;;;0.10;0.10;;;;;;;3.17;69.31;101869.47;5016335;28;20042;-73
2022/11/17 07:27:59;;;;;;;1.98;0.00;;;;;;;3.18;69.84;101866.91;5018264;28;20406;-72
2022/11/17 07:30:26;;;;;;;0.20;0.10;;;;;;;3.19;69.90;101876.44;5017198;28;20053;-74
2022/11/17 07:32:53;;;;;;;0.73;0.10;;;;;;;3.20;70.36;101869.56;5011041;28;20054;-73
2022/11/17 07:35:21;;;;;;;1.13;0.00;;;;;;;3.20;69.37;101866.97;5011437;28;20050;-72
2022/11/17 07:37:48;;;;;;;1.55;0.00;;;;;;;3.20;70.23;101873.00;5017678;28;20048;-73
2022/11/17 07:40:16;;;;;;;0.65;0.00;;;;;;;3.21;69.66;101874.75;5016041;28;20136;-73
2022/11/17 07:42:47;;;;;;;0.10;0.00;;;;;;;3.20;69.54;101878.16;5018010;28;20466;-73
2022/11/17 07:45:14;;;;;;;1.00;0.00;;;;;;;3.21;69.63;101881.63;5017155;28;20046;-73
2022/11/17 07:47:41;;;;;;;0.05;0.00;;;;;;;3.21;69.44;101882.50;5019252;28;20463;-73
2022/11/17 07:50:09;;;;;;;0.85;0.00;;;;;;;3.22;69.87;101878.22;5014741;28;20231;-73
2022/11/17 07:52:37;;;;;;;0.32;0.00;;;;;;;3.23;69.53;101867.94;5016563;28;20057;-73
2022/11/17 07:55:05;;;;;;;0.13;0.00;;;;;;;3.24;69.73;101864.50;5016861;28;20054;-73
2022/11/17 07:57:32;;;;;;;0.10;0.00;;;;;;;3.25;69.41;101865.41;5015736;28;20042;-73
2022/11/17 07:59:59;;;;;;;0.10;0.00;;;;;;;3.20;69.57;101859.22;5017513;28;20073;-72
2022/11/17 08:02:27;;;;;;;1.05;0.00;;;;;;;3.24;69.90;101863.63;5017830;28;20625;-73
2022/11/17 08:04:54;;;;;;;0.93;0.10;;;;;;;3.25;69.54;101860.25;5015957;28;20042;-73
2022/11/17 08:07:21;;;;;;;0.00;0.00;;;;;;;3.27;69.86;101855.97;5016658;28;20077;-73
2022/11/17 08:09:50;;;;;;;1.85;0.00;;;;;;;3.29;69.15;101852.59;5016080;28;20057;-73
2022/11/17 08:12:16;;;;;;;0.00;0.00;;;;;;;3.30;69.52;101859.53;5018777;28;20056;-72
2022/11/17 08:14:43;;;;;;;0.00;0.00;;;;;;;3.32;69.30;101857.84;5015242;28;20108;-73
2022/11/17 08:17:10;;;;;;;4.00;0.40;;;;;;;3.32;69.15;101841.50;5015596;28;20057;-75
2022/11/17 08:19:37;;;;;;;0.10;0.03;;;;;;;3.36;68.96;101857.13;5015328;28;20052;-73
2022/11/17 08:22:04;;;;;;;0.65;0.00;;;;;;;3.37;68.88;101852.84;5015802;28;20495;-73
2022/11/17 08:24:31;;;;;;;7.35;0.40;;;;;;;3.38;69.50;101845.09;5011027;28;20076;-73
2022/11/17 08:26:59;;;;;;;0.10;0.10;;;;;;;3.40;68.97;101841.72;5017636;28;20522;-73
2022/11/17 08:29:26;;;;;;;0.38;0.10;;;;;;;3.43;69.24;101849.53;5018046;28;20049;-73
2022/11/17 08:31:53;;;;;;;0.17;0.10;;;;;;;3.44;69.01;101841.81;5012397;28;20065;-73
2022/11/17 08:34:20;;;;;;;0.20;0.10;;;;;;;3.43;69.49;101829.75;5018348;28;20037;-73
2022/11/17 08:36:46;;;;;;;0.50;0.10;;;;;;;3.48;68.72;101840.22;5018158;28;20050;-73
2022/11/17 08:39:14;;;;;;;0.20;0.10;;;;;;;3.48;68.73;101837.63;5014756;28;20422;-73
2022/11/17 08:41:41;;;;;;;0.10;0.10;;;;;;;3.49;68.61;101847.13;5012922;28;20046;-73
2022/11/17 08:44:09;;;;;;;1.65;0.03;;;;;;;3.49;68.67;101844.53;5012911;28;20062;-73
2022/11/17 08:46:36;;;;;;;0.00;0.00;;;;;;;3.41;69.17;101826.25;5013365;28;20429;-73
2022/11/17 08:49:03;;;;;;;0.63;0.00;;;;;;;3.48;68.81;101847.97;5014316;28;20050;-73
2022/11/17 08:51:30;;;;;;;0.10;0.00;;;;;;;3.40;69.04;101832.25;5008786;28;20387;-73
2022/11/17 08:53:59;;;;;;;0.98;0.10;;;;;;;3.46;69.33;101847.91;5015369;28;20049;-71
2022/11/17 08:56:26;;;;;;;0.10;0.03;;;;;;;3.47;68.85;101843.63;5015155;28;20045;-72
2022/11/17 08:58:53;;;;;;;1.50;0.03;;;;;;;3.45;69.30;101843.59;5016845;28;20045;-72
2022/11/17 09:01:21;;;;;;;1.52;0.20;;;;;;;3.48;68.90;101842.81;5013703;28;20487;-73
2022/11/17 09:03:48;;;;;;;0.10;0.10;;;;;;;3.37;69.23;101825.28;5013942;28;20054;-73
2022/11/17 09:06:16;;;;;;;1.00;0.00;;;;;;;3.49;68.96;101836.78;5015350;28;20072;-73
2022/11/17 09:08:43;;;;;;;0.25;0.10;;;;;;;3.49;69.33;101840.25;5016995;28;20049;-72
2022/11/17 09:11:11;;;;;;;0.10;0.10;;;;;;;3.49;69.50;101840.25;5014845;28;20129;-72
2022/11/17 09:13:39;;;;;;;0.20;0.00;;;;;;;3.51;68.93;101842.88;5015784;28;20095;-73
2022/11/17 09:16:08;;;;;;;5.00;0.10;;;;;;;3.51;69.68;101842.88;5020963;28;20046;-73
2022/11/17 09:18:38;;;;;;;1.08;0.10;;;;;;;3.52;69.28;101844.63;5017955;28;20064;-73
2022/11/17 09:21:07;;;;;;;1.10;0.10;;;;;;;3.53;69.60;101854.13;5018718;28;20045;-73
2022/11/17 09:23:34;;;;;;;3.05;0.28;;;;;;;3.53;69.44;101851.53;5020313;28;20045;-76
2022/11/17 09:26:05;;;;;;;0.10;0.10;;;;;;;3.55;69.65;101853.31;5019330;28;20072;-73
2022/11/17 09:28:32;;;;;;;0.10;0.10;;;;;;;3.56;69.39;101856.81;5018910;28;20050;-73
2022/11/17 09:30:59;;;;;;;0.55;0.15;;;;;;;3.57;69.29;101858.56;5021120;28;20049;-73
2022/11/17 09:33:27;;;;;;;0.57;0.13;;;;;;;3.58;69.51;101862.88;5019464;28;20056;-74
2022/11/17 09:35:58;;;;;;;0.10;0.10;;;;;;;3.61;69.26;101865.53;5021400;28;20042;-73
2022/11/17 09:38:25;;;;;;;0.32;0.25;;;;;;;3.61;69.49;101857.78;5016722;28;20049;-74
2022/11/17 09:40:54;;;;;;;1.73;0.20;;;;;;;3.63;68.84;101868.19;5015409;28;20049;-73
2022/11/17 09:43:27;;;;;;;0.85;0.10;;;;;;;3.60;69.62;101858.63;5019527;28;20076;-73
2022/11/17 09:45:59;;;;;;;1.35;0.10;;;;;;;3.60;69.22;101863.81;5018858;28;20096;-73
2022/11/17 09:48:37;;;;;;;1.65;0.10;;;;;;;3.63;69.36;101863.00;5024324;28;20053;-73
2022/11/17 09:51:11;;;;;;;0.43;0.10;;;;;;;3.64;69.13;101855.28;5018911;28;20041;-73
2022/11/17 09:53:45;;;;;;;1.15;0.13;;;;;;;3.66;68.77;101853.63;5018724;28;20058;-73
2022/11/17 09:56:14;;;;;;;0.10;0.03;;;;;;;3.67;69.40;101855.41;5017987;28;20056;-72
2022/11/17 09:58:46;;;;;;;1.15;0.10;;;;;;;3.59;69.06;101841.41;5022880;28;20433;-73
2022/11/17 10:01:16;;;;;;;0.32;0.10;;;;;;;3.66;69.23;101853.63;5016611;28;20450;-73
2022/11/17 10:03:45;;;;;;;0.20;0.10;;;;;;;3.66;68.87;101851.03;5023141;28;20045;-73
2022/11/17 10:06:18;;;;;;;1.15;0.00;;;;;;;3.66;68.71;101843.28;5016747;28;20050;-73
2022/11/17 10:08:57;;;;;;;0.10;0.10;;;;;;;3.66;68.83;101838.13;5019980;28;20464;-73
2022/11/17 10:11:31;;;;;;;1.65;0.00;;;;;;;3.63;68.79;101835.47;5019793;28;20045;-73
2022/11/17 10:14:01;;;;;;;0.03;0.00;;;;;;;3.63;68.84;101835.47;5021767;28;20042;-73
2022/11/17 10:16:28;;;;;;;0.40;0.40;;;;;;;3.63;68.08;101842.34;5020690;28;20048;-73
2022/11/17 10:18:55;;;;;;;0.10;0.03;;;;;;;3.61;68.07;101834.53;5018372;28;20052;-73
2022/11/17 10:21:24;;;;;;;0.20;0.03;;;;;;;3.60;68.12;101837.97;5019667;28;20049;-73
2022/11/17 10:23:57;;;;;;;0.30;0.00;;;;;;;3.61;67.92;101837.13;5017055;28;20050;-73
2022/11/17 10:26:23;;;;;;;2.25;0.10;;;;;;;3.61;68.16;101831.94;5019562;28;20048;-73
2022/11/17 10:29:05;;;;;;;0.03;0.00;;;;;;;3.62;68.21;101835.44;5011765;28;20057;-73
2022/11/17 10:31:40;;;;;;;1.27;0.03;;;;;;;3.61;67.41;101826.78;5015545;28;20049;-73
2022/11/17 10:34:09;;;;;;;0.10;0.10;;;;;;;3.61;67.46;101824.19;5016067;28;20058;-73
2022/11/17 10:36:46;;;;;;;0.00;0.00;;;;;;;3.61;67.65;101824.19;5020730;28;20111;-73
2022/11/17 10:39:38;;;;;;;0.28;0.08;;;;;;;3.63;67.49;101827.72;5015903;28;20086;-73
2022/11/17 10:42:21;;;;;;;0.35;0.10;;;;;;;3.63;67.57;101819.97;5019268;28;20046;-73
2022/11/17 10:44:51;;;;;;;0.20;0.00;;;;;;;3.62;67.01;101819.94;5015600;28;20067;-73
2022/11/17 10:47:29;;;;;;;0.35;0.00;;;;;;;3.63;67.40;101817.38;5014331;28;20060;-73
2022/11/17 10:50:18;;;;;;;0.30;0.08;;;;;;;3.66;66.75;101808.84;5017873;28;20046;-73
2022/11/17 10:52:47;;;;;;;1.45;0.10;;;;;;;3.69;66.84;101820.13;5018758;28;20055;-73
2022/11/17 10:55:24;;;;;;;0.30;0.05;;;;;;;3.67;66.70;101808.88;5015030;28;20046;-72
2022/11/17 10:57:57;;;;;;;0.10;0.10;;;;;;;3.72;67.05;101815.03;5017382;28;20095;-73
2022/11/17 11:00:27;;;;;;;0.20;0.10;;;;;;;3.73;66.73;101806.47;5020878;28;20038;-73
2022/11/17 11:03:16;;;;;;;0.65;0.13;;;;;;;3.74;66.64;101810.78;5017414;28;20042;-73
2022/11/17 11:05:57;;;;;;;2.28;0.10;;;;;;;3.77;66.73;101807.41;5018629;28;20053;-73
2022/11/17 11:08:30;;;;;;;0.20;0.10;;;;;;;3.74;66.62;101802.16;5015663;28;20046;-74
2022/11/17 11:10:59;;;;;;;0.20;0.10;;;;;;;3.77;66.86;101805.69;5015806;28;20088;-73
2022/11/17 11:13:32;;;;;;;1.40;0.10;;;;;;;3.79;66.78;101804.03;5019046;28;20132;-73
2022/11/17 11:15:59;;;;;;;0.65;0.17;;;;;;;3.82;66.68;101809.28;5018033;28;20050;-73
2022/11/17 11:18:30;;;;;;;0.30;0.10;;;;;;;3.85;65.97;101808.47;5021027;28;20057;-73
2022/11/17 11:21:06;;;;;;;0.65;0.10;;;;;;;3.86;66.35;101815.38;5017072;28;20053;-73
2022/11/17 11:23:46;;;;;;;0.68;0.10;;;;;;;3.84;66.34;101809.31;5015852;28;20084;-73
2022/11/17 11:26:26;;;;;;;0.45;0.20;;;;;;;3.79;66.09;101798.00;5016848;28;20055;-74
2022/11/17 11:29:05;;;;;;;0.65;0.20;;;;;;;3.71;66.09;101787.44;5015223;28;20050;-74
2022/11/17 11:31:38;;;;;;;0.10;0.10;;;;;;;3.77;66.53;101799.66;5020738;28;20052;-73
2022/11/17 11:34:23;;;;;;;0.32;0.20;;;;;;;3.77;66.15;101797.94;5019547;28;20052;-74
2022/11/17 11:36:53;;;;;;;0.65;0.20;;;;;;;3.72;66.80;101784.03;5017798;28;20049;-73
2022/11/17 11:39:36;;;;;;;1.80;0.30;;;;;;;3.79;66.13;101791.09;5019656;28;20645;-73
2022/11/17 11:42:21;;;;;;;0.25;0.20;;;;;;;3.79;66.41;101788.53;5017691;28;20053;-74
2022/11/17 11:45:06;;;;;;;0.60;0.10;;;;;;;3.80;66.59;101785.09;5010811;28;20049;-74
2022/11/17 11:47:49;;;;;;;0.55;0.20;;;;;;;3.83;66.37;101792.06;5017596;28;20487;-73
2022/11/17 11:50:22;;;;;;;0.38;0.20;;;;;;;3.69;66.05;101760.69;5016819;28;20108;-73
2022/11/17 11:52:55;;;;;;;0.68;0.30;;;;;;;3.88;65.63;101787.00;5014609;28;20061;-74
2022/11/17 11:55:30;;;;;;;2.42;0.20;;;;;;;3.88;66.06;101787.00;5020624;28;20429;-74
2022/11/17 11:58:05;;;;;;;0.75;0.40;;;;;;;3.91;65.70;101787.09;5013213;28;20053;-73
2022/11/17 12:00:33;;;;;;;0.50;0.20;;;;;;;3.92;65.78;101786.25;5012055;28;20057;-73
2022/11/17 12:03:13;;;;;;;0.30;0.20;;;;;;;3.92;65.70;101789.69;5018278;28;20057;-74
2022/11/17 12:05:55;;;;;;;0.70;0.10;;;;;;;3.93;65.25;101781.13;5013716;28;20061;-73
2022/11/17 12:08:29;;;;;;;0.52;0.15;;;;;;;3.82;65.38;101760.16;5015488;28;20060;-74
2022/11/17 12:11:58;;;;;;;0.20;0.13;;;;;;;3.95;65.68;101783.72;5012476;28;20502;-73
2022/11/17 12:13:49;;;;;;;0.85;0.20;;;;;;;3.95;64.72;101788.91;5016659;28;20073;-74